createdAt,value
2017-10-31T00:00:48.741Z,1021.31
2017-10-31T00:01:48.715Z,1021.31
2017-10-31T00:02:48.696Z,1021.27
2017-10-31T00:03:48.684Z,1021.29
2017-10-31T00:04:48.639Z,1021.25
2017-10-31T00:05:48.615Z,1021.24
2017-10-31T00:06:48.594Z,1021.23
2017-10-31T00:07:48.565Z,1021.23
2017-10-31T00:08:48.540Z,1021.23
2017-10-31T00:09:48.512Z,1021.24
2017-10-31T00:10:48.489Z,1021.29
2017-10-31T00:11:48.463Z,1021.24
2017-10-31T00:12:48.438Z,1021.22
2017-10-31T00:13:48.416Z,1021.23
2017-10-31T00:14:48.390Z,1021.23
2017-10-31T00:15:48.362Z,1021.23
2017-10-31T00:16:48.337Z,1021.21
2017-10-31T00:17:48.318Z,1021.22
2017-10-31T00:18:48.287Z,1021.17
2017-10-31T00:19:48.261Z,1021.2
2017-10-31T00:20:48.244Z,1021.21
2017-10-31T00:21:48.217Z,1021.13
2017-10-31T00:22:48.190Z,1021.16
2017-10-31T00:23:48.161Z,1021.13
2017-10-31T00:24:48.137Z,1021.18
2017-10-31T00:25:48.108Z,1021.16
2017-10-31T00:26:48.088Z,1021.19
2017-10-31T00:27:48.061Z,1021.14
2017-10-31T00:28:48.042Z,1021.18
2017-10-31T00:29:48.009Z,1021.18
2017-10-31T00:30:47.989Z,1021.16
2017-10-31T00:31:47.963Z,1021.16
2017-10-31T00:32:47.940Z,1021.14
2017-10-31T00:33:47.911Z,1021.09
2017-10-31T00:34:47.889Z,1021.1
2017-10-31T00:35:47.860Z,1021.13
2017-10-31T00:36:47.833Z,1021.11
2017-10-31T00:37:47.809Z,1021.12
2017-10-31T00:38:47.784Z,1021.12
2017-10-31T00:39:47.760Z,1021.11
2017-10-31T00:40:47.733Z,1021.12
2017-10-31T00:41:47.709Z,1021.12
2017-10-31T00:42:47.687Z,1021.12
2017-10-31T00:43:47.658Z,1021.11
2017-10-31T00:44:47.634Z,1021.14
2017-10-31T00:45:47.606Z,1021.15
2017-10-31T00:46:47.583Z,1021.14
2017-10-31T00:47:47.560Z,1021.14
2017-10-31T00:48:47.538Z,1021.16
2017-10-31T00:49:47.509Z,1021.09
2017-10-31T00:50:47.488Z,1021.09
2017-10-31T00:51:47.460Z,1021.09
2017-10-31T00:52:47.431Z,1021.15
2017-10-31T00:53:47.408Z,1021.14
2017-10-31T00:54:47.384Z,1021.15
2017-10-31T00:55:47.358Z,1021.07
2017-10-31T00:56:47.333Z,1021.08
2017-10-31T00:57:47.307Z,1021.11
2017-10-31T00:58:47.282Z,1021.09
2017-10-31T00:59:47.259Z,1021.08
2017-10-31T01:00:47.232Z,1021.04
2017-10-31T01:01:47.205Z,1021.09
2017-10-31T01:02:47.181Z,1021.06
2017-10-31T01:03:47.162Z,1021.04
2017-10-31T01:04:47.130Z,1021.03
2017-10-31T01:05:47.108Z,1021.03
2017-10-31T01:06:47.080Z,1021.04
2017-10-31T01:07:47.072Z,1021.01
2017-10-31T01:08:47.032Z,1021.03
2017-10-31T01:09:47.009Z,1021.01
2017-10-31T01:10:46.980Z,1020.99
2017-10-31T01:11:46.956Z,1021
2017-10-31T01:12:46.931Z,1020.97
2017-10-31T01:13:46.907Z,1020.95
2017-10-31T01:14:46.885Z,1020.97
2017-10-31T01:15:46.857Z,1020.94
2017-10-31T01:16:46.830Z,1020.94
2017-10-31T01:17:46.804Z,1020.93
2017-10-31T01:18:46.794Z,1020.93
2017-10-31T01:19:46.760Z,1020.92
2017-10-31T01:20:46.730Z,1020.93
2017-10-31T01:21:46.704Z,1020.88
2017-10-31T01:22:46.678Z,1020.87
2017-10-31T01:23:46.653Z,1020.86
2017-10-31T01:24:46.630Z,1020.88
2017-10-31T01:25:46.608Z,1020.9
2017-10-31T01:26:46.582Z,1020.91
2017-10-31T01:27:46.554Z,1020.87
2017-10-31T01:28:46.527Z,1020.85
2017-10-31T01:29:46.502Z,1020.83
2017-10-31T01:30:46.479Z,1020.88
2017-10-31T01:31:46.458Z,1020.79
2017-10-31T01:32:46.429Z,1020.76
2017-10-31T01:33:46.403Z,1020.76
2017-10-31T01:34:46.382Z,1020.74
2017-10-31T01:35:46.355Z,1020.78
2017-10-31T01:36:46.335Z,1020.73
2017-10-31T01:37:46.303Z,1020.77
2017-10-31T01:38:46.277Z,1020.76
2017-10-31T01:39:46.252Z,1020.71
2017-10-31T01:40:46.233Z,1020.72
2017-10-31T01:41:46.201Z,1020.75
2017-10-31T01:42:46.192Z,1020.69
2017-10-31T01:43:46.151Z,1020.73
2017-10-31T01:44:46.126Z,1020.71
2017-10-31T01:45:46.105Z,1020.71
2017-10-31T01:46:46.078Z,1020.68
2017-10-31T01:47:46.050Z,1020.73
2017-10-31T01:48:46.027Z,1020.7
2017-10-31T01:49:46.001Z,1020.72
2017-10-31T01:50:45.976Z,1020.69
2017-10-31T01:51:45.951Z,1020.71
2017-10-31T01:52:45.927Z,1020.75
2017-10-31T01:53:45.901Z,1020.74
2017-10-31T01:54:45.875Z,1020.75
2017-10-31T01:55:45.850Z,1020.75
2017-10-31T01:56:45.825Z,1020.81
2017-10-31T01:57:45.802Z,1020.78
2017-10-31T01:58:45.778Z,1020.74
2017-10-31T01:59:45.753Z,1020.76
2017-10-31T02:00:45.728Z,1020.74
2017-10-31T02:01:45.701Z,1020.76
2017-10-31T02:02:45.676Z,1020.72
2017-10-31T02:03:45.651Z,1020.82
2017-10-31T02:04:45.627Z,1020.78
2017-10-31T02:05:45.606Z,1020.84
2017-10-31T02:06:45.576Z,1020.83
2017-10-31T02:07:45.553Z,1020.85
2017-10-31T02:08:45.524Z,1020.85
2017-10-31T02:09:45.503Z,1020.8
2017-10-31T02:10:45.476Z,1020.84
2017-10-31T02:11:45.453Z,1020.83
2017-10-31T02:12:45.427Z,1020.82
2017-10-31T02:13:45.402Z,1020.81
2017-10-31T02:14:45.381Z,1020.76
2017-10-31T02:15:45.351Z,1020.79
2017-10-31T02:16:45.327Z,1020.77
2017-10-31T02:17:45.304Z,1020.79
2017-10-31T02:18:45.280Z,1020.75
2017-10-31T02:19:45.253Z,1020.74
2017-10-31T02:20:45.225Z,1020.79
2017-10-31T02:21:45.202Z,1020.76
2017-10-31T02:22:45.181Z,1020.8
2017-10-31T02:23:45.156Z,1020.79
2017-10-31T02:24:45.129Z,1020.81
2017-10-31T02:25:45.102Z,1020.77
2017-10-31T02:26:45.076Z,1020.81
2017-10-31T02:27:45.051Z,1020.77
2017-10-31T02:28:45.026Z,1020.77
2017-10-31T02:29:45.004Z,1020.81
2017-10-31T02:30:44.981Z,1020.78
2017-10-31T02:31:44.954Z,1020.81
2017-10-31T02:32:44.937Z,1020.78
2017-10-31T02:33:44.902Z,1020.8
2017-10-31T02:34:44.881Z,1020.72
2017-10-31T02:35:44.852Z,1020.74
2017-10-31T02:36:44.826Z,1020.73
2017-10-31T02:37:44.803Z,1020.71
2017-10-31T02:38:44.778Z,1020.72
2017-10-31T02:39:44.752Z,1020.71
2017-10-31T02:40:44.727Z,1020.7
2017-10-31T02:41:44.707Z,1020.69
2017-10-31T02:42:45.034Z,1020.66
2017-10-31T02:43:44.652Z,1020.64
2017-10-31T02:44:44.633Z,1020.67
2017-10-31T02:45:44.605Z,1020.62
2017-10-31T02:46:44.581Z,1020.57
2017-10-31T02:47:44.553Z,1020.6
2017-10-31T02:48:44.528Z,1020.55
2017-10-31T02:49:44.501Z,1020.53
2017-10-31T02:50:44.479Z,1020.52
2017-10-31T02:51:44.453Z,1020.53
2017-10-31T02:52:44.431Z,1020.56
2017-10-31T02:53:44.403Z,1020.53
2017-10-31T02:54:44.378Z,1020.49
2017-10-31T02:55:44.350Z,1020.49
2017-10-31T02:56:44.328Z,1020.46
2017-10-31T02:57:44.305Z,1020.43
2017-10-31T02:58:44.278Z,1020.46
2017-10-31T02:59:44.256Z,1020.45
2017-10-31T03:00:44.236Z,1020.43
2017-10-31T03:01:44.203Z,1020.46
2017-10-31T03:02:44.191Z,1020.52
2017-10-31T03:03:44.151Z,1020.51
2017-10-31T03:04:44.133Z,1020.53
2017-10-31T03:05:44.103Z,1020.54
2017-10-31T03:06:44.078Z,1020.53
2017-10-31T03:07:44.055Z,1020.48
2017-10-31T03:08:44.030Z,1020.44
2017-10-31T03:09:44.004Z,1020.45
2017-10-31T03:10:43.979Z,1020.51
2017-10-31T03:11:43.953Z,1020.47
2017-10-31T03:12:43.929Z,1020.5
2017-10-31T03:13:43.906Z,1020.48
2017-10-31T03:14:43.878Z,1020.51
2017-10-31T03:15:43.854Z,1020.51
2017-10-31T03:16:43.834Z,1020.53
2017-10-31T03:17:43.805Z,1020.53
2017-10-31T03:18:43.784Z,1020.51
2017-10-31T03:19:43.754Z,1020.46
2017-10-31T03:20:43.734Z,1020.44
2017-10-31T03:21:43.704Z,1020.42
2017-10-31T03:22:43.682Z,1020.44
2017-10-31T03:23:43.655Z,1020.41
2017-10-31T03:24:43.633Z,1020.43
2017-10-31T03:25:43.608Z,1020.39
2017-10-31T03:26:43.585Z,1020.43
2017-10-31T03:27:43.558Z,1020.36
2017-10-31T03:28:43.537Z,1020.38
2017-10-31T03:29:43.500Z,1020.41
2017-10-31T03:30:43.485Z,1020.39
2017-10-31T03:31:43.454Z,1020.37
2017-10-31T03:32:43.429Z,1020.37
2017-10-31T03:33:43.405Z,1020.36
2017-10-31T03:34:43.388Z,1020.33
2017-10-31T03:35:43.354Z,1020.35
2017-10-31T03:36:43.329Z,1020.37
2017-10-31T03:37:43.315Z,1020.41
2017-10-31T03:38:43.298Z,1020.42
2017-10-31T03:39:43.254Z,1020.47
2017-10-31T03:40:43.231Z,1020.49
2017-10-31T03:41:43.203Z,1020.5
2017-10-31T03:42:43.181Z,1020.52
2017-10-31T03:43:43.153Z,1020.46
2017-10-31T03:44:43.130Z,1020.47
2017-10-31T03:45:43.105Z,1020.44
2017-10-31T03:46:43.079Z,1020.45
2017-10-31T03:47:43.072Z,1020.42
2017-10-31T03:48:43.031Z,1020.43
2017-10-31T03:49:43.007Z,1020.46
2017-10-31T03:50:42.987Z,1020.41
2017-10-31T03:51:42.953Z,1020.4
2017-10-31T03:52:42.930Z,1020.38
2017-10-31T03:53:42.905Z,1020.43
2017-10-31T03:54:42.877Z,1020.41
2017-10-31T03:55:42.854Z,1020.41
2017-10-31T03:56:42.829Z,1020.42
2017-10-31T03:57:42.803Z,1020.44
2017-10-31T03:58:42.782Z,1020.41
2017-10-31T03:59:42.756Z,1020.42
2017-10-31T04:00:42.728Z,1020.44
2017-10-31T04:01:42.704Z,1020.41
2017-10-31T04:02:42.678Z,1020.44
2017-10-31T04:03:42.654Z,1020.45
2017-10-31T04:04:42.629Z,1020.46
2017-10-31T04:05:42.605Z,1020.46
2017-10-31T04:06:42.580Z,1020.49
2017-10-31T04:07:42.556Z,1020.49
2017-10-31T04:08:42.527Z,1020.44
2017-10-31T04:09:42.504Z,1020.44
2017-10-31T04:10:42.477Z,1020.45
2017-10-31T04:11:42.455Z,1020.45
2017-10-31T04:12:42.429Z,1020.39
2017-10-31T04:13:42.407Z,1020.41
2017-10-31T04:14:42.378Z,1020.42
2017-10-31T04:15:42.358Z,1020.41
2017-10-31T04:16:42.330Z,1020.4
2017-10-31T04:17:42.302Z,1020.37
2017-10-31T04:18:42.278Z,1020.41
2017-10-31T04:19:42.252Z,1020.44
2017-10-31T04:20:42.235Z,1020.34
2017-10-31T04:21:42.203Z,1020.39
2017-10-31T04:22:42.182Z,1020.37
2017-10-31T04:23:42.154Z,1020.34
2017-10-31T04:24:42.128Z,1020.38
2017-10-31T04:25:42.102Z,1020.4
2017-10-31T04:26:42.078Z,1020.3
2017-10-31T04:27:42.052Z,1020.33
2017-10-31T04:28:42.028Z,1020.3
2017-10-31T04:29:42.003Z,1020.3
2017-10-31T04:30:41.978Z,1020.31
2017-10-31T04:31:41.953Z,1020.27
2017-10-31T04:32:41.927Z,1020.31
2017-10-31T04:33:41.905Z,1020.34
2017-10-31T04:34:41.877Z,1020.32
2017-10-31T04:35:41.852Z,1020.34
2017-10-31T04:36:41.829Z,1020.32
2017-10-31T04:37:41.803Z,1020.33
2017-10-31T04:38:41.776Z,1020.26
2017-10-31T04:39:41.749Z,1020.24
2017-10-31T04:40:41.724Z,1020.27
2017-10-31T04:41:41.702Z,1020.24
2017-10-31T04:42:41.676Z,1020.26
2017-10-31T04:43:41.650Z,1020.3
2017-10-31T04:44:41.629Z,1020.24
2017-10-31T04:45:41.599Z,1020.25
2017-10-31T04:46:41.573Z,1020.29
2017-10-31T04:47:41.553Z,1020.24
2017-10-31T04:48:41.522Z,1020.25
2017-10-31T04:49:41.503Z,1020.24
2017-10-31T04:50:41.475Z,1020.23
2017-10-31T04:51:41.449Z,1020.24
2017-10-31T04:52:41.426Z,1020.23
2017-10-31T04:53:41.400Z,1020.22
2017-10-31T04:54:41.374Z,1020.2
2017-10-31T04:55:41.352Z,1020.22
2017-10-31T04:56:41.329Z,1020.22
2017-10-31T04:57:41.298Z,1020.19
2017-10-31T04:58:41.274Z,1020.15
2017-10-31T04:59:41.250Z,1020.19
2017-10-31T05:00:41.223Z,1020.14
2017-10-31T05:01:41.198Z,1020.19
2017-10-31T05:02:41.176Z,1020.18
2017-10-31T05:03:41.150Z,1020.18
2017-10-31T05:04:41.125Z,1020.16
2017-10-31T05:05:41.101Z,1020.15
2017-10-31T05:06:41.072Z,1020.12
2017-10-31T05:07:41.047Z,1020.06
2017-10-31T05:08:41.024Z,1020.12
2017-10-31T05:09:40.999Z,1020.13
2017-10-31T05:10:40.992Z,1020.1
2017-10-31T05:11:40.948Z,1020.18
2017-10-31T05:12:40.931Z,1020.12
2017-10-31T05:13:40.897Z,1020.13
2017-10-31T05:14:40.874Z,1020.11
2017-10-31T05:15:40.848Z,1020.1
2017-10-31T05:16:40.823Z,1020.11
2017-10-31T05:17:40.799Z,1020.14
2017-10-31T05:18:40.773Z,1020.14
2017-10-31T05:19:40.750Z,1020.1
2017-10-31T05:20:40.721Z,1020.14
2017-10-31T05:21:40.698Z,1020.11
2017-10-31T05:22:40.672Z,1020.15
2017-10-31T05:23:40.647Z,1020.1
2017-10-31T05:24:40.621Z,1020.12
2017-10-31T05:25:40.602Z,1020.07
2017-10-31T05:26:40.575Z,1020.06
2017-10-31T05:27:40.550Z,1020.04
2017-10-31T05:28:40.526Z,1020.05
2017-10-31T05:29:40.496Z,1020.08
2017-10-31T05:30:40.472Z,1020.02
2017-10-31T05:31:40.452Z,1020.07
2017-10-31T05:32:40.424Z,1020.04
2017-10-31T05:33:40.396Z,1020.11
2017-10-31T05:34:40.373Z,1020.03
2017-10-31T05:35:40.350Z,1020.04
2017-10-31T05:36:40.318Z,1020.07
2017-10-31T05:37:40.297Z,1020.04
2017-10-31T05:38:40.271Z,1020.05
2017-10-31T05:39:40.247Z,1020.03
2017-10-31T05:40:40.221Z,1020.06
2017-10-31T05:41:40.196Z,1020.04
2017-10-31T05:42:40.170Z,1020.04
2017-10-31T05:43:40.146Z,1020.03
2017-10-31T05:44:40.121Z,1020.03
2017-10-31T05:45:40.099Z,1019.99
2017-10-31T05:46:40.068Z,1020.01
2017-10-31T05:47:40.056Z,1020.03
2017-10-31T05:48:40.025Z,1020.04
2017-10-31T05:49:39.996Z,1020.02
2017-10-31T05:50:39.968Z,1020.05
2017-10-31T05:51:39.948Z,1020.03
2017-10-31T05:52:39.921Z,1020.04
2017-10-31T05:53:39.895Z,1020.08
2017-10-31T05:54:39.880Z,1020.05
2017-10-31T05:55:39.841Z,1020.09
2017-10-31T05:56:39.816Z,1020.06
2017-10-31T05:57:39.798Z,1020.11
2017-10-31T05:58:39.768Z,1020.14
2017-10-31T05:59:39.742Z,1020.13
2017-10-31T06:00:39.718Z,1020.1
2017-10-31T06:01:39.698Z,1020.09
2017-10-31T06:02:39.673Z,1020.08
2017-10-31T06:03:39.651Z,1020.09
2017-10-31T06:04:39.624Z,1020.05
2017-10-31T06:05:39.594Z,1020.07
2017-10-31T06:06:39.568Z,1020.05
2017-10-31T06:07:39.543Z,1020.04
2017-10-31T06:08:39.523Z,1020.1
2017-10-31T06:09:39.491Z,1020.1
2017-10-31T06:10:39.467Z,1020.06
2017-10-31T06:11:39.441Z,1020.07
2017-10-31T06:12:39.417Z,1020.04
2017-10-31T06:13:39.392Z,1020.09
2017-10-31T06:14:39.366Z,1020.09
2017-10-31T06:15:39.338Z,1020.12
2017-10-31T06:16:39.317Z,1020.09
2017-10-31T06:17:39.294Z,1020.1
2017-10-31T06:18:39.270Z,1020.1
2017-10-31T06:19:39.245Z,1020.13
2017-10-31T06:20:39.217Z,1020.11
2017-10-31T06:21:39.194Z,1020.12
2017-10-31T06:22:39.170Z,1020.14
2017-10-31T06:23:39.143Z,1020.14
2017-10-31T06:24:39.116Z,1020.15
2017-10-31T06:25:39.093Z,1020.13
2017-10-31T06:26:39.069Z,1020.14
2017-10-31T06:27:39.043Z,1020.16
2017-10-31T06:28:39.016Z,1020.15
2017-10-31T06:29:38.994Z,1020.16
2017-10-31T06:30:38.968Z,1020.22
2017-10-31T06:31:38.952Z,1020.13
2017-10-31T06:32:38.916Z,1020.17
2017-10-31T06:33:38.897Z,1020.16
2017-10-31T06:34:38.868Z,1020.17
2017-10-31T06:35:38.841Z,1020.2
2017-10-31T06:36:38.815Z,1020.16
2017-10-31T06:37:38.795Z,1020.17
2017-10-31T06:38:38.768Z,1020.22
2017-10-31T06:39:38.745Z,1020.26
2017-10-31T06:40:38.717Z,1020.3
2017-10-31T06:41:38.693Z,1020.21
2017-10-31T06:42:38.674Z,1020.24
2017-10-31T06:43:38.642Z,1020.24
2017-10-31T06:44:38.618Z,1020.24
2017-10-31T06:45:38.594Z,1020.3
2017-10-31T06:46:38.566Z,1020.26
2017-10-31T06:47:38.546Z,1020.3
2017-10-31T06:48:38.525Z,1020.27
2017-10-31T06:49:38.493Z,1020.33
2017-10-31T06:50:38.467Z,1020.32
2017-10-31T06:51:38.442Z,1020.26
2017-10-31T06:52:38.421Z,1020.29
2017-10-31T06:53:38.393Z,1020.3
2017-10-31T06:54:38.369Z,1020.31
2017-10-31T06:55:38.344Z,1020.29
2017-10-31T06:56:38.320Z,1020.33
2017-10-31T06:57:38.295Z,1020.34
2017-10-31T06:58:38.272Z,1020.32
2017-10-31T06:59:38.243Z,1020.32
2017-10-31T07:00:38.218Z,1020.34
2017-10-31T07:01:38.190Z,1020.36
2017-10-31T07:02:38.170Z,1020.38
2017-10-31T07:03:38.147Z,1020.42
2017-10-31T07:04:38.121Z,1020.39
2017-10-31T07:05:38.094Z,1020.4
2017-10-31T07:06:38.066Z,1020.42
2017-10-31T07:07:38.046Z,1020.38
2017-10-31T07:08:38.024Z,1020.38
2017-10-31T07:09:37.995Z,1020.37
2017-10-31T07:10:37.973Z,1020.36
2017-10-31T07:11:38.295Z,1020.39
2017-10-31T07:12:37.923Z,1020.37
2017-10-31T07:13:37.897Z,1020.35
2017-10-31T07:14:37.876Z,1020.35
2017-10-31T07:15:37.851Z,1020.34
2017-10-31T07:16:37.824Z,1020.35
2017-10-31T07:17:37.798Z,1020.32
2017-10-31T07:18:37.772Z,1020.36
2017-10-31T07:19:37.752Z,1020.34
2017-10-31T07:20:37.726Z,1020.32
2017-10-31T07:21:37.701Z,1020.27
2017-10-31T07:22:37.679Z,1020.29
2017-10-31T07:23:37.657Z,1020.26
2017-10-31T07:24:37.631Z,1020.25
2017-10-31T07:25:37.608Z,1020.24
2017-10-31T07:26:37.580Z,1020.21
2017-10-31T07:27:37.557Z,1020.23
2017-10-31T07:28:37.532Z,1020.24
2017-10-31T07:29:37.517Z,1020.28
2017-10-31T07:30:37.487Z,1020.19
2017-10-31T07:31:37.458Z,1020.24
2017-10-31T07:32:37.436Z,1020.22
2017-10-31T07:33:37.413Z,1020.26
2017-10-31T07:34:37.388Z,1020.26
2017-10-31T07:35:37.368Z,1020.26
2017-10-31T07:36:37.342Z,1020.27
2017-10-31T07:37:37.316Z,1020.29
2017-10-31T07:38:37.292Z,1020.23
2017-10-31T07:39:37.267Z,1020.29
2017-10-31T07:40:37.255Z,1020.29
2017-10-31T07:41:37.219Z,1020.34
2017-10-31T07:42:37.198Z,1020.22
2017-10-31T07:43:37.177Z,1020.28
2017-10-31T07:44:37.148Z,1020.26
2017-10-31T07:45:37.125Z,1020.22
2017-10-31T07:46:37.104Z,1020.26
2017-10-31T07:47:37.078Z,1020.22
2017-10-31T07:48:37.053Z,1020.24
2017-10-31T07:49:37.028Z,1020.29
2017-10-31T07:50:37.005Z,1020.25
2017-10-31T07:51:36.984Z,1020.28
2017-10-31T07:52:36.958Z,1020.28
2017-10-31T07:53:36.933Z,1020.29
2017-10-31T07:54:36.912Z,1020.31
2017-10-31T07:55:36.886Z,1020.28
2017-10-31T07:56:36.864Z,1020.26
2017-10-31T07:57:36.839Z,1020.34
2017-10-31T07:58:36.815Z,1020.35
2017-10-31T07:59:36.788Z,1020.31
2017-10-31T08:00:36.766Z,1020.35
2017-10-31T08:01:36.746Z,1020.4
2017-10-31T08:02:36.719Z,1020.41
2017-10-31T08:03:36.701Z,1020.41
2017-10-31T08:04:36.670Z,1020.44
2017-10-31T08:05:36.649Z,1020.44
2017-10-31T08:06:36.628Z,1020.39
2017-10-31T08:07:36.598Z,1020.41
2017-10-31T08:08:36.574Z,1020.4
2017-10-31T08:09:36.554Z,1020.41
2017-10-31T08:10:36.532Z,1020.38
2017-10-31T08:11:36.503Z,1020.39
2017-10-31T08:12:36.480Z,1020.35
2017-10-31T08:13:36.455Z,1020.31
2017-10-31T08:14:36.431Z,1020.33
2017-10-31T08:15:36.408Z,1020.28
2017-10-31T08:16:36.384Z,1020.22
2017-10-31T08:17:36.361Z,1020.26
2017-10-31T08:18:36.335Z,1020.24
2017-10-31T08:19:36.311Z,1020.26
2017-10-31T08:20:36.288Z,1020.21
2017-10-31T08:21:36.263Z,1020.2
2017-10-31T08:22:36.240Z,1020.19
2017-10-31T08:23:36.222Z,1020.15
2017-10-31T08:24:36.192Z,1020.17
2017-10-31T08:25:36.166Z,1020.09
2017-10-31T08:26:36.146Z,1020.08
2017-10-31T08:27:36.120Z,1020.11
2017-10-31T08:28:36.096Z,1020.1
2017-10-31T08:29:36.073Z,1020.1
2017-10-31T08:30:36.048Z,1020.1
2017-10-31T08:31:36.026Z,1020.1
2017-10-31T08:32:36.000Z,1020.16
2017-10-31T08:33:35.976Z,1020.11
2017-10-31T08:34:35.957Z,1020.06
2017-10-31T08:35:35.930Z,1020.08
2017-10-31T08:36:35.906Z,1020.12
2017-10-31T08:37:35.883Z,1020.05
2017-10-31T08:38:35.859Z,1020.05
2017-10-31T08:39:35.835Z,1020.03
2017-10-31T08:40:35.816Z,1020.05
2017-10-31T08:41:35.788Z,1020.02
2017-10-31T08:42:35.765Z,1020.03
2017-10-31T08:43:35.746Z,1020.09
2017-10-31T08:44:35.717Z,1020.04
2017-10-31T08:45:35.708Z,1020.06
2017-10-31T08:46:35.668Z,1020.06
2017-10-31T08:47:35.646Z,1019.99
2017-10-31T08:48:35.624Z,1020.09
2017-10-31T08:49:35.600Z,1020.11
2017-10-31T08:50:35.576Z,1020.07
2017-10-31T08:51:35.553Z,1020.12
2017-10-31T08:52:35.528Z,1020.12
2017-10-31T08:53:35.506Z,1020.14
2017-10-31T08:54:35.481Z,1020.05
2017-10-31T08:55:35.459Z,1020.03
2017-10-31T08:56:35.434Z,1020.06
2017-10-31T08:57:35.408Z,1020.09
2017-10-31T08:58:35.390Z,1020.09
2017-10-31T08:59:35.365Z,1020.08
2017-10-31T09:00:35.340Z,1020.13
2017-10-31T09:01:35.318Z,1020.08
2017-10-31T09:02:35.291Z,1020.1
2017-10-31T09:03:35.270Z,1020.12
2017-10-31T09:04:35.247Z,1020.12
2017-10-31T09:05:35.222Z,1020.14
2017-10-31T09:06:35.198Z,1020.18
2017-10-31T09:07:35.175Z,1020.11
2017-10-31T09:08:35.150Z,1020.13
2017-10-31T09:09:35.127Z,1020.16
2017-10-31T09:10:35.105Z,1020.15
2017-10-31T09:11:35.090Z,1020.12
2017-10-31T09:12:35.055Z,1020.17
2017-10-31T09:13:35.032Z,1020.15
2017-10-31T09:14:35.017Z,1020.13
2017-10-31T09:15:34.985Z,1020.18
2017-10-31T09:16:34.963Z,1020.12
2017-10-31T09:17:34.940Z,1020.21
2017-10-31T09:18:34.915Z,1020.2
2017-10-31T09:19:34.891Z,1020.2
2017-10-31T09:20:34.869Z,1020.17
2017-10-31T09:21:34.846Z,1020.17
2017-10-31T09:22:34.824Z,1020.21
2017-10-31T09:23:34.800Z,1020.23
2017-10-31T09:24:34.773Z,1020.21
2017-10-31T09:25:34.756Z,1020.18
2017-10-31T09:26:34.724Z,1020.14
2017-10-31T09:27:34.705Z,1020.16
2017-10-31T09:28:34.680Z,1020.18
2017-10-31T09:29:34.657Z,1020.14
2017-10-31T09:30:34.633Z,1020.19
2017-10-31T09:31:34.609Z,1020.18
2017-10-31T09:32:34.585Z,1020.15
2017-10-31T09:33:34.564Z,1020.23
2017-10-31T09:34:34.540Z,1020.21
2017-10-31T09:35:34.514Z,1020.14
2017-10-31T09:36:34.512Z,1020.14
2017-10-31T09:37:34.466Z,1020.16
2017-10-31T09:38:34.442Z,1020.12
2017-10-31T09:39:34.417Z,1020.1
2017-10-31T09:40:34.396Z,1020.13
2017-10-31T09:41:34.373Z,1020.2
2017-10-31T09:42:34.350Z,1020.16
2017-10-31T09:43:34.322Z,1020.15
2017-10-31T09:44:34.300Z,1020.18
2017-10-31T09:45:34.278Z,1020.2
2017-10-31T09:46:34.255Z,1020.19
2017-10-31T09:47:34.230Z,1020.19
2017-10-31T09:48:34.203Z,1020.17
2017-10-31T09:49:34.180Z,1020.21
2017-10-31T09:50:34.159Z,1020.13
2017-10-31T09:51:34.139Z,1020.16
2017-10-31T09:52:34.111Z,1020.16
2017-10-31T09:53:34.089Z,1020.17
2017-10-31T09:54:34.065Z,1020.15
2017-10-31T09:55:34.045Z,1020.21
2017-10-31T09:56:34.017Z,1020.17
2017-10-31T09:57:33.994Z,1020.16
2017-10-31T09:58:33.971Z,1020.18
2017-10-31T09:59:33.946Z,1020.18
2017-10-31T10:00:33.926Z,1020.2
2017-10-31T10:01:33.899Z,1020.21
2017-10-31T10:02:33.878Z,1020.17
2017-10-31T10:03:33.855Z,1020.18
2017-10-31T10:04:33.829Z,1020.13
2017-10-31T10:05:33.806Z,1020.14
2017-10-31T10:06:33.782Z,1020.11
2017-10-31T10:07:33.762Z,1020.14
2017-10-31T10:08:33.737Z,1020.16
2017-10-31T10:09:33.715Z,1020.19
2017-10-31T10:10:33.691Z,1020.22
2017-10-31T10:11:33.664Z,1020.22
2017-10-31T10:12:33.642Z,1020.17
2017-10-31T10:13:33.628Z,1020.13
2017-10-31T10:14:33.595Z,1020.11
2017-10-31T10:15:33.573Z,1020.11
2017-10-31T10:16:33.549Z,1020.07
2017-10-31T10:17:33.538Z,1020.08
2017-10-31T10:18:33.503Z,1020.17
2017-10-31T10:19:33.479Z,1020.11
2017-10-31T10:20:33.456Z,1020.11
2017-10-31T10:21:33.433Z,1020.1
2017-10-31T10:22:33.414Z,1020.09
2017-10-31T10:23:33.392Z,1020.02
2017-10-31T10:24:33.365Z,1020.01
2017-10-31T10:25:33.340Z,1020.04
2017-10-31T10:26:33.318Z,1020.01
2017-10-31T10:27:33.299Z,1020
2017-10-31T10:28:33.272Z,1019.98
2017-10-31T10:29:33.249Z,1019.93
2017-10-31T10:30:33.228Z,1019.95
2017-10-31T10:31:33.204Z,1019.9
2017-10-31T10:32:33.184Z,1019.93
2017-10-31T10:33:33.156Z,1019.91
2017-10-31T10:34:33.133Z,1019.91
2017-10-31T10:35:33.110Z,1019.85
2017-10-31T10:36:33.089Z,1019.92
2017-10-31T10:37:33.064Z,1019.84
2017-10-31T10:38:33.049Z,1019.84
2017-10-31T10:39:33.019Z,1019.87
2017-10-31T10:40:32.994Z,1019.89
2017-10-31T10:41:32.972Z,1019.87
2017-10-31T10:42:32.946Z,1019.84
2017-10-31T10:43:32.927Z,1019.85
2017-10-31T10:44:32.902Z,1019.87
2017-10-31T10:45:32.883Z,1019.87
2017-10-31T10:46:32.856Z,1019.88
2017-10-31T10:47:32.830Z,1019.83
2017-10-31T10:48:32.807Z,1019.76
2017-10-31T10:49:32.795Z,1019.83
2017-10-31T10:50:32.782Z,1019.81
2017-10-31T10:51:32.740Z,1019.8
2017-10-31T10:52:32.717Z,1019.78
2017-10-31T10:53:32.690Z,1019.74
2017-10-31T10:54:32.671Z,1019.76
2017-10-31T10:55:32.646Z,1019.72
2017-10-31T10:56:32.622Z,1019.74
2017-10-31T10:57:32.600Z,1019.72
2017-10-31T10:58:32.575Z,1019.76
2017-10-31T10:59:32.553Z,1019.76
2017-10-31T11:00:32.532Z,1019.75
2017-10-31T11:01:32.506Z,1019.7
2017-10-31T11:02:32.483Z,1019.74
2017-10-31T11:03:32.460Z,1019.69
2017-10-31T11:04:32.437Z,1019.69
2017-10-31T11:05:32.415Z,1019.65
2017-10-31T11:06:32.390Z,1019.69
2017-10-31T11:07:32.383Z,1019.68
2017-10-31T11:08:32.341Z,1019.61
2017-10-31T11:09:32.321Z,1019.65
2017-10-31T11:10:32.299Z,1019.66
2017-10-31T11:11:32.285Z,1019.65
2017-10-31T11:12:32.250Z,1019.66
2017-10-31T11:13:32.229Z,1019.65
2017-10-31T11:14:32.204Z,1019.61
2017-10-31T11:15:32.531Z,1019.66
2017-10-31T11:16:32.158Z,1019.61
2017-10-31T11:17:32.135Z,1019.66
2017-10-31T11:18:32.111Z,1019.58
2017-10-31T11:19:32.088Z,1019.61
2017-10-31T11:20:32.065Z,1019.6
2017-10-31T11:21:32.042Z,1019.52
2017-10-31T11:22:32.020Z,1019.56
2017-10-31T11:23:31.996Z,1019.5
2017-10-31T11:24:31.970Z,1019.53
2017-10-31T11:25:31.949Z,1019.51
2017-10-31T11:26:31.933Z,1019.46
2017-10-31T11:27:31.900Z,1019.47
2017-10-31T11:28:31.879Z,1019.48
2017-10-31T11:29:31.858Z,1019.46
2017-10-31T11:30:31.837Z,1019.46
2017-10-31T11:31:31.810Z,1019.46
2017-10-31T11:32:31.792Z,1019.45
2017-10-31T11:33:31.767Z,1019.42
2017-10-31T11:34:31.742Z,1019.42
2017-10-31T11:35:31.719Z,1019.42
2017-10-31T11:36:31.695Z,1019.36
2017-10-31T11:37:31.672Z,1019.39
2017-10-31T11:38:31.652Z,1019.36
2017-10-31T11:39:31.630Z,1019.33
2017-10-31T11:40:31.605Z,1019.35
2017-10-31T11:41:31.588Z,1019.42
2017-10-31T11:42:31.563Z,1019.31
2017-10-31T11:43:31.535Z,1019.34
2017-10-31T11:44:31.514Z,1019.34
2017-10-31T11:45:31.491Z,1019.32
2017-10-31T11:46:31.468Z,1019.26
2017-10-31T11:47:31.444Z,1019.28
2017-10-31T11:48:31.425Z,1019.3
2017-10-31T11:49:31.410Z,1019.28
2017-10-31T11:50:31.375Z,1019.24
2017-10-31T11:51:31.750Z,1019.23
2017-10-31T11:52:31.603Z,1019.27
2017-10-31T11:53:31.652Z,1019.19
2017-10-31T11:54:31.488Z,1019.28
2017-10-31T11:55:31.695Z,1019.19
2017-10-31T11:56:31.676Z,1019.19
2017-10-31T11:57:31.548Z,1019.16
2017-10-31T11:58:31.565Z,1019.18
2017-10-31T11:59:31.508Z,1019.13
2017-10-31T12:00:31.148Z,1019.13
2017-10-31T12:01:31.450Z,1019.12
2017-10-31T12:02:31.439Z,1019.1
2017-10-31T12:03:31.362Z,1019.13
2017-10-31T12:04:31.346Z,1019.1
2017-10-31T12:05:31.052Z,1019.09
2017-10-31T12:06:31.011Z,1019.01
2017-10-31T12:07:30.989Z,1019.08